sensor_id;sensor_type;location;lat;lon;timestamp;P1;durP1;ratioP1;P2;durP2;ratioP2
22967;SDS011;11650;48.106;-1.696;2023-04-01T00:00:55;20.80;;;3.87;;
22967;SDS011;11650;48.106;-1.696;2023-04-01T00:03:23;21.17;;;4.00;;
22967;SDS011;11650;48.106;-1.696;2023-04-01T00:05:49;19.67;;;3.50;;
22967;SDS011;11650;48.106;-1.696;2023-04-01T00:08:15;27.63;;;3.87;;
22967;SDS011;11650;48.106;-1.696;2023-04-01T00:10:41;30.17;;;4.33;;
22967;SDS011;11650;48.106;-1.696;2023-04-01T00:13:07;20.63;;;3.53;;
22967;SDS011;11650;48.106;-1.696;2023-04-01T00:15:33;25.93;;;4.37;;
22967;SDS011;11650;48.106;-1.696;2023-04-01T00:17:59;22.60;;;3.43;;
22967;SDS011;11650;48.106;-1.696;2023-04-01T00:20:26;25.33;;;3.87;;
22967;SDS011;11650;48.106;-1.696;2023-04-01T00:22:52;21.27;;;3.90;;
22967;SDS011;11650;48.106;-1.696;2023-04-01T00:25:17;28.33;;;4.10;;
22967;SDS011;11650;48.106;-1.696;2023-04-01T00:27:43;28.10;;;3.97;;
22967;SDS011;11650;48.106;-1.696;2023-04-01T00:30:09;24.90;;;3.83;;
22967;SDS011;11650;48.106;-1.696;2023-04-01T00:32:35;25.53;;;3.63;;
22967;SDS011;11650;48.106;-1.696;2023-04-01T00:35:01;24.30;;;3.77;;
22967;SDS011;11650;48.106;-1.696;2023-04-01T00:37:27;31.97;;;4.67;;
22967;SDS011;11650;48.106;-1.696;2023-04-01T00:39:53;24.20;;;3.23;;
22967;SDS011;11650;48.106;-1.696;2023-04-01T00:42:19;28.03;;;3.87;;
22967;SDS011;11650;48.106;-1.696;2023-04-01T00:44:45;29.33;;;4.07;;
22967;SDS011;11650;48.106;-1.696;2023-04-01T00:47:15;25.43;;;4.00;;
22967;SDS011;11650;48.106;-1.696;2023-04-01T00:49:43;22.97;;;3.53;;
22967;SDS011;11650;48.106;-1.696;2023-04-01T00:52:11;27.50;;;3.77;;
22967;SDS011;11650;48.106;-1.696;2023-04-01T00:54:40;26.10;;;3.63;;
22967;SDS011;11650;48.106;-1.696;2023-04-01T00:57:12;27.37;;;4.17;;
22967;SDS011;11650;48.106;-1.696;2023-04-01T00:59:50;24.23;;;3.93;;
22967;SDS011;11650;48.106;-1.696;2023-04-01T01:02:19;25.73;;;4.00;;
22967;SDS011;11650;48.106;-1.696;2023-04-01T01:04:45;25.17;;;3.40;;
22967;SDS011;11650;48.106;-1.696;2023-04-01T01:09:39;30.43;;;3.83;;
22967;SDS011;11650;48.106;-1.696;2023-04-01T01:12:19;26.03;;;4.10;;
22967;SDS011;11650;48.106;-1.696;2023-04-01T01:37:35;17.70;;;3.43;;
22967;SDS011;11650;48.106;-1.696;2023-04-01T01:40:04;18.50;;;3.43;;
22967;SDS011;11650;48.106;-1.696;2023-04-01T01:42:33;14.10;;;3.13;;
22967;SDS011;11650;48.106;-1.696;2023-04-01T01:45:02;15.90;;;2.83;;
22967;SDS011;11650;48.106;-1.696;2023-04-01T01:47:30;27.07;;;3.50;;
22967;SDS011;11650;48.106;-1.696;2023-04-01T01:49:58;23.37;;;2.93;;
22967;SDS011;11650;48.106;-1.696;2023-04-01T01:52:27;18.90;;;2.73;;
22967;SDS011;11650;48.106;-1.696;2023-04-01T01:54:56;19.27;;;2.93;;
22967;SDS011;11650;48.106;-1.696;2023-04-01T01:57:23;14.47;;;2.87;;
22967;SDS011;11650;48.106;-1.696;2023-04-01T01:59:55;25.33;;;3.60;;
22967;SDS011;11650;48.106;-1.696;2023-04-01T02:02:26;16.73;;;2.83;;
22967;SDS011;11650;48.106;-1.696;2023-04-01T02:04:56;16.17;;;2.90;;
22967;SDS011;11650;48.106;-1.696;2023-04-01T02:07:27;18.13;;;2.53;;
22967;SDS011;11650;48.106;-1.696;2023-04-01T02:09:57;17.23;;;3.00;;
22967;SDS011;11650;48.106;-1.696;2023-04-01T02:12:22;14.53;;;2.47;;
22967;SDS011;11650;48.106;-1.696;2023-04-01T02:14:51;17.43;;;2.97;;
22967;SDS011;11650;48.106;-1.696;2023-04-01T02:17:20;18.40;;;2.47;;
22967;SDS011;11650;48.106;-1.696;2023-04-01T02:19:57;19.53;;;2.43;;
22967;SDS011;11650;48.106;-1.696;2023-04-01T02:22:28;14.43;;;2.50;;
22967;SDS011;11650;48.106;-1.696;2023-04-01T02:24:57;15.90;;;2.83;;
22967;SDS011;11650;48.106;-1.696;2023-04-01T02:27:26;14.20;;;2.70;;
22967;SDS011;11650;48.106;-1.696;2023-04-01T02:29:53;15.27;;;3.20;;
22967;SDS011;11650;48.106;-1.696;2023-04-01T02:32:19;18.00;;;2.60;;
22967;SDS011;11650;48.106;-1.696;2023-04-01T02:34:46;13.80;;;2.10;;
22967;SDS011;11650;48.106;-1.696;2023-04-01T02:37:12;15.67;;;2.27;;
22967;SDS011;11650;48.106;-1.696;2023-04-01T02:39:38;13.87;;;2.10;;
22967;SDS011;11650;48.106;-1.696;2023-04-01T02:42:05;21.53;;;3.10;;
22967;SDS011;11650;48.106;-1.696;2023-04-01T02:44:31;19.83;;;2.63;;
22967;SDS011;11650;48.106;-1.696;2023-04-01T02:46:56;20.30;;;2.90;;
22967;SDS011;11650;48.106;-1.696;2023-04-01T02:49:22;13.20;;;2.87;;
22967;SDS011;11650;48.106;-1.696;2023-04-01T02:51:48;16.93;;;2.40;;
22967;SDS011;11650;48.106;-1.696;2023-04-01T02:54:13;17.73;;;2.87;;
22967;SDS011;11650;48.106;-1.696;2023-04-01T02:56:39;15.93;;;2.70;;
22967;SDS011;11650;48.106;-1.696;2023-04-01T02:59:05;15.93;;;3.07;;
22967;SDS011;11650;48.106;-1.696;2023-04-01T03:01:31;13.53;;;2.80;;
22967;SDS011;11650;48.106;-1.696;2023-04-01T03:03:56;21.23;;;2.67;;
22967;SDS011;11650;48.106;-1.696;2023-04-01T03:06:22;15.93;;;2.37;;
22967;SDS011;11650;48.106;-1.696;2023-04-01T03:08:48;15.40;;;2.53;;
22967;SDS011;11650;48.106;-1.696;2023-04-01T03:11:13;19.37;;;2.80;;
22967;SDS011;11650;48.106;-1.696;2023-04-01T03:13:39;20.67;;;2.80;;
22967;SDS011;11650;48.106;-1.696;2023-04-01T03:16:05;14.60;;;3.33;;
22967;SDS011;11650;48.106;-1.696;2023-04-01T03:18:31;19.47;;;3.23;;
22967;SDS011;11650;48.106;-1.696;2023-04-01T03:20:57;18.23;;;4.67;;
22967;SDS011;11650;48.106;-1.696;2023-04-01T03:23:22;20.27;;;4.70;;
22967;SDS011;11650;48.106;-1.696;2023-04-01T03:25:49;19.37;;;3.73;;
22967;SDS011;11650;48.106;-1.696;2023-04-01T03:28:15;20.27;;;4.40;;
22967;SDS011;11650;48.106;-1.696;2023-04-01T03:30:41;18.53;;;3.10;;
22967;SDS011;11650;48.106;-1.696;2023-04-01T03:33:06;17.33;;;3.03;;
22967;SDS011;11650;48.106;-1.696;2023-04-01T03:35:32;21.70;;;3.03;;
22967;SDS011;11650;48.106;-1.696;2023-04-01T03:38:00;16.63;;;2.87;;
22967;SDS011;11650;48.106;-1.696;2023-04-01T03:40:26;16.90;;;3.17;;
22967;SDS011;11650;48.106;-1.696;2023-04-01T03:42:52;14.00;;;2.63;;
22967;SDS011;11650;48.106;-1.696;2023-04-01T03:45:18;13.53;;;2.57;;
22967;SDS011;11650;48.106;-1.696;2023-04-01T03:47:44;19.17;;;4.00;;
22967;SDS011;11650;48.106;-1.696;2023-04-01T03:50:09;18.87;;;3.10;;
22967;SDS011;11650;48.106;-1.696;2023-04-01T03:52:35;18.57;;;2.43;;
22967;SDS011;11650;48.106;-1.696;2023-04-01T03:55:01;19.30;;;2.70;;
22967;SDS011;11650;48.106;-1.696;2023-04-01T03:57:27;18.83;;;2.47;;
22967;SDS011;11650;48.106;-1.696;2023-04-01T03:59:55;16.97;;;3.40;;
22967;SDS011;11650;48.106;-1.696;2023-04-01T04:02:21;15.43;;;2.40;;
22967;SDS011;11650;48.106;-1.696;2023-04-01T04:04:46;19.43;;;3.50;;
22967;SDS011;11650;48.106;-1.696;2023-04-01T04:07:12;12.73;;;2.33;;
22967;SDS011;11650;48.106;-1.696;2023-04-01T04:09:38;14.03;;;2.33;;
22967;SDS011;11650;48.106;-1.696;2023-04-01T04:12:03;14.63;;;2.50;;
22967;SDS011;11650;48.106;-1.696;2023-04-01T04:14:30;20.53;;;2.80;;
22967;SDS011;11650;48.106;-1.696;2023-04-01T04:16:56;15.03;;;2.87;;
22967;SDS011;11650;48.106;-1.696;2023-04-01T04:19:22;15.10;;;2.90;;
22967;SDS011;11650;48.106;-1.696;2023-04-01T04:21:47;16.67;;;3.07;;
22967;SDS011;11650;48.106;-1.696;2023-04-01T04:24:13;14.53;;;2.37;;
22967;SDS011;11650;48.106;-1.696;2023-04-01T04:26:39;16.20;;;2.20;;
22967;SDS011;11650;48.106;-1.696;2023-04-01T04:29:04;20.10;;;2.80;;
22967;SDS011;11650;48.106;-1.696;2023-04-01T04:31:30;16.43;;;2.50;;
22967;SDS011;11650;48.106;-1.696;2023-04-01T04:33:56;15.67;;;2.70;;
22967;SDS011;11650;48.106;-1.696;2023-04-01T04:36:24;17.90;;;2.90;;
22967;SDS011;11650;48.106;-1.696;2023-04-01T04:38:49;20.63;;;2.70;;
22967;SDS011;11650;48.106;-1.696;2023-04-01T04:41:16;17.90;;;2.63;;
22967;SDS011;11650;48.106;-1.696;2023-04-01T04:43:48;15.93;;;2.43;;
22967;SDS011;11650;48.106;-1.696;2023-04-01T04:46:18;17.97;;;2.63;;
22967;SDS011;11650;48.106;-1.696;2023-04-01T04:48:44;10.50;;;1.73;;
22967;SDS011;11650;48.106;-1.696;2023-04-01T04:51:17;13.60;;;2.53;;
22967;SDS011;11650;48.106;-1.696;2023-04-01T04:53:44;14.90;;;2.47;;
22967;SDS011;11650;48.106;-1.696;2023-04-01T04:56:10;20.17;;;2.97;;
22967;SDS011;11650;48.106;-1.696;2023-04-01T04:58:37;11.47;;;3.20;;
22967;SDS011;11650;48.106;-1.696;2023-04-01T05:01:07;15.10;;;2.17;;
22967;SDS011;11650;48.106;-1.696;2023-04-01T05:03:35;20.33;;;2.57;;
22967;SDS011;11650;48.106;-1.696;2023-04-01T05:06:01;15.03;;;2.43;;
22967;SDS011;11650;48.106;-1.696;2023-04-01T05:08:27;12.10;;;2.37;;
22967;SDS011;11650;48.106;-1.696;2023-04-01T05:10:53;16.23;;;2.10;;
22967;SDS011;11650;48.106;-1.696;2023-04-01T05:13:18;15.03;;;2.80;;
22967;SDS011;11650;48.106;-1.696;2023-04-01T05:15:44;19.13;;;2.77;;
22967;SDS011;11650;48.106;-1.696;2023-04-01T05:18:10;19.17;;;2.93;;
22967;SDS011;11650;48.106;-1.696;2023-04-01T05:20:36;11.43;;;2.50;;
22967;SDS011;11650;48.106;-1.696;2023-04-01T05:23:02;20.23;;;2.80;;
22967;SDS011;11650;48.106;-1.696;2023-04-01T05:25:28;22.40;;;2.40;;
22967;SDS011;11650;48.106;-1.696;2023-04-01T05:27:53;14.53;;;2.30;;
22967;SDS011;11650;48.106;-1.696;2023-04-01T05:30:19;19.37;;;2.90;;
22967;SDS011;11650;48.106;-1.696;2023-04-01T05:32:45;19.77;;;2.67;;
22967;SDS011;11650;48.106;-1.696;2023-04-01T05:35:11;14.77;;;2.37;;
22967;SDS011;11650;48.106;-1.696;2023-04-01T05:37:37;15.27;;;2.60;;
22967;SDS011;11650;48.106;-1.696;2023-04-01T05:40:03;19.83;;;2.43;;
22967;SDS011;11650;48.106;-1.696;2023-04-01T05:42:29;17.27;;;2.60;;
22967;SDS011;11650;48.106;-1.696;2023-04-01T05:44:55;19.83;;;2.60;;
22967;SDS011;11650;48.106;-1.696;2023-04-01T05:47:21;14.27;;;2.60;;
22967;SDS011;11650;48.106;-1.696;2023-04-01T05:49:47;20.33;;;2.63;;
22967;SDS011;11650;48.106;-1.696;2023-04-01T05:52:13;19.07;;;2.60;;
22967;SDS011;11650;48.106;-1.696;2023-04-01T05:54:38;18.37;;;2.70;;
22967;SDS011;11650;48.106;-1.696;2023-04-01T05:57:04;22.07;;;2.70;;
22967;SDS011;11650;48.106;-1.696;2023-04-01T05:59:30;15.67;;;2.93;;
22967;SDS011;11650;48.106;-1.696;2023-04-01T06:01:59;16.47;;;2.73;;
22967;SDS011;11650;48.106;-1.696;2023-04-01T06:04:26;15.87;;;2.37;;
22967;SDS011;11650;48.106;-1.696;2023-04-01T06:06:56;14.50;;;2.20;;
22967;SDS011;11650;48.106;-1.696;2023-04-01T06:09:29;17.87;;;2.17;;
22967;SDS011;11650;48.106;-1.696;2023-04-01T06:31:03;21.03;;;2.73;;
22967;SDS011;11650;48.106;-1.696;2023-04-01T06:33:55;20.27;;;3.03;;
22967;SDS011;11650;48.106;-1.696;2023-04-01T06:37:06;22.40;;;3.77;;
22967;SDS011;11650;48.106;-1.696;2023-04-01T06:56:07;23.20;;;3.23;;
22967;SDS011;11650;48.106;-1.696;2023-04-01T06:58:37;24.50;;;3.70;;
22967;SDS011;11650;48.106;-1.696;2023-04-01T07:01:28;20.47;;;2.77;;
22967;SDS011;11650;48.106;-1.696;2023-04-01T07:04:00;19.37;;;2.07;;
22967;SDS011;11650;48.106;-1.696;2023-04-01T07:06:32;17.67;;;3.63;;
22967;SDS011;11650;48.106;-1.696;2023-04-01T07:09:06;19.83;;;2.93;;
22967;SDS011;11650;48.106;-1.696;2023-04-01T07:11:37;26.03;;;3.43;;
22967;SDS011;11650;48.106;-1.696;2023-04-01T07:17:12;24.67;;;3.30;;
22967;SDS011;11650;48.106;-1.696;2023-04-01T07:19:47;17.20;;;2.93;;
22967;SDS011;11650;48.106;-1.696;2023-04-01T07:22:40;21.00;;;3.30;;
22967;SDS011;11650;48.106;-1.696;2023-04-01T07:28:00;18.37;;;2.83;;
22967;SDS011;11650;48.106;-1.696;2023-04-01T07:30:33;17.10;;;2.93;;
22967;SDS011;11650;48.106;-1.696;2023-04-01T07:35:54;17.87;;;2.57;;
22967;SDS011;11650;48.106;-1.696;2023-04-01T07:49:14;22.93;;;3.80;;
22967;SDS011;11650;48.106;-1.696;2023-04-01T07:52:00;17.73;;;2.90;;
22967;SDS011;11650;48.106;-1.696;2023-04-01T07:54:35;17.03;;;3.17;;
22967;SDS011;11650;48.106;-1.696;2023-04-01T07:59:56;19.67;;;3.53;;
22967;SDS011;11650;48.106;-1.696;2023-04-01T08:05:19;15.90;;;2.50;;
22967;SDS011;11650;48.106;-1.696;2023-04-01T08:10:49;15.23;;;2.77;;
22967;SDS011;11650;48.106;-1.696;2023-04-01T08:16:14;18.37;;;3.10;;
22967;SDS011;11650;48.106;-1.696;2023-04-01T08:21:51;17.93;;;2.80;;
22967;SDS011;11650;48.106;-1.696;2023-04-01T08:29:55;14.30;;;2.97;;
22967;SDS011;11650;48.106;-1.696;2023-04-01T08:32:26;17.87;;;3.20;;
22967;SDS011;11650;48.106;-1.696;2023-04-01T08:37:38;14.17;;;2.33;;
22967;SDS011;11650;48.106;-1.696;2023-04-01T08:49:09;20.00;;;2.67;;
22967;SDS011;11650;48.106;-1.696;2023-04-01T08:55:19;12.97;;;2.37;;
22967;SDS011;11650;48.106;-1.696;2023-04-01T09:00:57;14.70;;;2.87;;
22967;SDS011;11650;48.106;-1.696;2023-04-01T09:03:56;17.37;;;2.67;;
22967;SDS011;11650;48.106;-1.696;2023-04-01T09:15:20;17.07;;;2.70;;
22967;SDS011;11650;48.106;-1.696;2023-04-01T09:18:11;15.60;;;2.60;;
22967;SDS011;11650;48.106;-1.696;2023-04-01T09:28:47;15.10;;;2.77;;
22967;SDS011;11650;48.106;-1.696;2023-04-01T09:36:57;11.27;;;2.10;;
22967;SDS011;11650;48.106;-1.696;2023-04-01T09:45:09;14.93;;;2.60;;
22967;SDS011;11650;48.106;-1.696;2023-04-01T09:50:31;12.30;;;2.20;;
22967;SDS011;11650;48.106;-1.696;2023-04-01T10:13:11;12.53;;;2.10;;
22967;SDS011;11650;48.106;-1.696;2023-04-01T10:16:25;13.23;;;1.80;;
22967;SDS011;11650;48.106;-1.696;2023-04-01T10:44:43;12.83;;;2.23;;
22967;SDS011;11650;48.106;-1.696;2023-04-01T10:56:15;7.93;;;2.10;;
22967;SDS011;11650;48.106;-1.696;2023-04-01T11:15:52;8.67;;;1.93;;
22967;SDS011;11650;48.106;-1.696;2023-04-01T11:24:31;11.43;;;2.00;;
22967;SDS011;11650;48.106;-1.696;2023-04-01T11:43:51;11.57;;;1.70;;
22967;SDS011;11650;48.106;-1.696;2023-04-01T11:47:00;9.10;;;1.77;;
22967;SDS011;11650;48.106;-1.696;2023-04-01T11:55:28;10.93;;;2.10;;
22967;SDS011;11650;48.106;-1.696;2023-04-01T12:00:42;10.00;;;2.27;;
22967;SDS011;11650;48.106;-1.696;2023-04-01T12:14:41;10.97;;;1.83;;
22967;SDS011;11650;48.106;-1.696;2023-04-01T13:02:37;6.23;;;1.20;;
22967;SDS011;11650;48.106;-1.696;2023-04-01T13:07:59;8.30;;;1.67;;
22967;SDS011;11650;48.106;-1.696;2023-04-01T13:15:55;12.23;;;2.20;;
22967;SDS011;11650;48.106;-1.696;2023-04-01T13:21:20;10.47;;;1.97;;
22967;SDS011;11650;48.106;-1.696;2023-04-01T13:24:30;12.83;;;2.43;;
22967;SDS011;11650;48.106;-1.696;2023-04-01T13:35:26;17.03;;;2.53;;
22967;SDS011;11650;48.106;-1.696;2023-04-01T13:38:30;15.87;;;2.43;;
22967;SDS011;11650;48.106;-1.696;2023-04-01T13:41:11;17.37;;;3.13;;
22967;SDS011;11650;48.106;-1.696;2023-04-01T13:44:03;13.80;;;2.83;;
22967;SDS011;11650;48.106;-1.696;2023-04-01T14:03:30;16.40;;;2.63;;
22967;SDS011;11650;48.106;-1.696;2023-04-01T14:30:38;9.30;;;2.07;;
22967;SDS011;11650;48.106;-1.696;2023-04-01T14:39:04;11.57;;;2.10;;
22967;SDS011;11650;48.106;-1.696;2023-04-01T14:44:45;11.63;;;2.30;;
22967;SDS011;11650;48.106;-1.696;2023-04-01T14:47:39;14.77;;;2.27;;
22967;SDS011;11650;48.106;-1.696;2023-04-01T14:50:29;18.53;;;2.70;;
22967;SDS011;11650;48.106;-1.696;2023-04-01T14:56:03;9.50;;;2.20;;
22967;SDS011;11650;48.106;-1.696;2023-04-01T14:58:41;14.43;;;2.80;;
22967;SDS011;11650;48.106;-1.696;2023-04-01T15:01:13;18.00;;;2.87;;
22967;SDS011;11650;48.106;-1.696;2023-04-01T15:04:12;15.47;;;2.90;;
22967;SDS011;11650;48.106;-1.696;2023-04-01T15:12:20;12.97;;;2.47;;
22967;SDS011;11650;48.106;-1.696;2023-04-01T15:35:14;9.03;;;2.40;;
22967;SDS011;11650;48.106;-1.696;2023-04-01T15:37:59;9.57;;;2.00;;
22967;SDS011;11650;48.106;-1.696;2023-04-01T15:40:40;11.47;;;2.67;;
22967;SDS011;11650;48.106;-1.696;2023-04-01T15:43:14;9.53;;;2.40;;
22967;SDS011;11650;48.106;-1.696;2023-04-01T15:49:05;8.83;;;2.13;;
22967;SDS011;11650;48.106;-1.696;2023-04-01T15:51:58;11.03;;;2.70;;
22967;SDS011;11650;48.106;-1.696;2023-04-01T15:57:37;9.80;;;2.07;;
22967;SDS011;11650;48.106;-1.696;2023-04-01T16:00:21;8.90;;;2.87;;
22967;SDS011;11650;48.106;-1.696;2023-04-01T16:11:16;7.30;;;1.60;;
22967;SDS011;11650;48.106;-1.696;2023-04-01T16:21:53;10.87;;;2.40;;
22967;SDS011;11650;48.106;-1.696;2023-04-01T16:27:18;13.30;;;2.67;;
22967;SDS011;11650;48.106;-1.696;2023-04-01T16:35:35;8.73;;;2.10;;
22967;SDS011;11650;48.106;-1.696;2023-04-01T16:41:36;13.43;;;1.70;;
22967;SDS011;11650;48.106;-1.696;2023-04-01T16:49:50;8.67;;;1.80;;
22967;SDS011;11650;48.106;-1.696;2023-04-01T16:52:40;8.80;;;1.93;;
22967;SDS011;11650;48.106;-1.696;2023-04-01T16:55:42;7.73;;;1.40;;
22967;SDS011;11650;48.106;-1.696;2023-04-01T16:58:18;6.57;;;1.80;;
22967;SDS011;11650;48.106;-1.696;2023-04-01T17:01:04;10.73;;;1.70;;
22967;SDS011;11650;48.106;-1.696;2023-04-01T17:03:58;8.67;;;2.00;;
22967;SDS011;11650;48.106;-1.696;2023-04-01T17:06:33;6.77;;;1.50;;
22967;SDS011;11650;48.106;-1.696;2023-04-01T17:09:29;9.23;;;1.83;;
22967;SDS011;11650;48.106;-1.696;2023-04-01T17:12:08;8.97;;;2.07;;
22967;SDS011;11650;48.106;-1.696;2023-04-01T17:17:18;8.70;;;1.97;;
22967;SDS011;11650;48.106;-1.696;2023-04-01T17:20:07;7.83;;;1.63;;
22967;SDS011;11650;48.106;-1.696;2023-04-01T17:22:51;9.33;;;2.20;;
22967;SDS011;11650;48.106;-1.696;2023-04-01T17:25:36;7.33;;;1.63;;
22967;SDS011;11650;48.106;-1.696;2023-04-01T17:28:24;7.40;;;1.77;;
22967;SDS011;11650;48.106;-1.696;2023-04-01T17:31:17;11.97;;;1.90;;
22967;SDS011;11650;48.106;-1.696;2023-04-01T17:36:45;11.67;;;1.83;;
22967;SDS011;11650;48.106;-1.696;2023-04-01T17:44:57;10.57;;;1.80;;
22967;SDS011;11650;48.106;-1.696;2023-04-01T17:58:45;11.83;;;1.93;;
22967;SDS011;11650;48.106;-1.696;2023-04-01T18:12:26;7.20;;;1.47;;
22967;SDS011;11650;48.106;-1.696;2023-04-01T18:17:57;7.63;;;1.30;;
22967;SDS011;11650;48.106;-1.696;2023-04-01T18:20:40;9.03;;;1.87;;
22967;SDS011;11650;48.106;-1.696;2023-04-01T18:23:22;8.00;;;1.70;;
22967;SDS011;11650;48.106;-1.696;2023-04-01T18:26:02;9.70;;;1.50;;
22967;SDS011;11650;48.106;-1.696;2023-04-01T18:28:38;9.50;;;1.87;;
22967;SDS011;11650;48.106;-1.696;2023-04-01T18:31:11;9.13;;;1.93;;
22967;SDS011;11650;48.106;-1.696;2023-04-01T18:33:48;8.93;;;1.30;;
22967;SDS011;11650;48.106;-1.696;2023-04-01T18:36:19;7.33;;;1.80;;
22967;SDS011;11650;48.106;-1.696;2023-04-01T18:38:50;7.50;;;1.43;;
22967;SDS011;11650;48.106;-1.696;2023-04-01T18:44:30;8.23;;;1.60;;
22967;SDS011;11650;48.106;-1.696;2023-04-01T18:52:47;6.20;;;1.43;;
22967;SDS011;11650;48.106;-1.696;2023-04-01T18:57:52;9.00;;;1.67;;
22967;SDS011;11650;48.106;-1.696;2023-04-01T19:00:36;6.33;;;1.57;;
22967;SDS011;11650;48.106;-1.696;2023-04-01T19:05:45;7.63;;;1.53;;
22967;SDS011;11650;48.106;-1.696;2023-04-01T19:08:19;9.37;;;1.67;;
22967;SDS011;11650;48.106;-1.696;2023-04-01T19:16:33;7.57;;;1.40;;
22967;SDS011;11650;48.106;-1.696;2023-04-01T19:22:01;12.43;;;2.27;;
22967;SDS011;11650;48.106;-1.696;2023-04-01T19:27:52;7.47;;;1.83;;
22967;SDS011;11650;48.106;-1.696;2023-04-01T19:39:27;7.50;;;2.03;;
22967;SDS011;11650;48.106;-1.696;2023-04-01T19:42:18;10.97;;;2.30;;
22967;SDS011;11650;48.106;-1.696;2023-04-01T19:44:53;9.80;;;1.77;;
22967;SDS011;11650;48.106;-1.696;2023-04-01T19:53:01;10.33;;;2.27;;
22967;SDS011;11650;48.106;-1.696;2023-04-01T19:56:22;7.63;;;1.97;;
22967;SDS011;11650;48.106;-1.696;2023-04-01T20:01:34;11.87;;;2.20;;
22967;SDS011;11650;48.106;-1.696;2023-04-01T20:04:23;10.33;;;2.10;;
22967;SDS011;11650;48.106;-1.696;2023-04-01T20:09:31;9.03;;;1.93;;
22967;SDS011;11650;48.106;-1.696;2023-04-01T20:14:56;11.33;;;2.13;;
22967;SDS011;11650;48.106;-1.696;2023-04-01T20:17:40;12.43;;;2.20;;
22967;SDS011;11650;48.106;-1.696;2023-04-01T20:28:02;10.80;;;1.87;;
22967;SDS011;11650;48.106;-1.696;2023-04-01T20:41:28;9.57;;;1.93;;
22967;SDS011;11650;48.106;-1.696;2023-04-01T20:44:20;8.03;;;2.33;;
22967;SDS011;11650;48.106;-1.696;2023-04-01T20:47:00;12.00;;;2.20;;
22967;SDS011;11650;48.106;-1.696;2023-04-01T20:49:40;10.83;;;2.73;;
22967;SDS011;11650;48.106;-1.696;2023-04-01T20:55:03;8.77;;;2.57;;
22967;SDS011;11650;48.106;-1.696;2023-04-01T21:22:19;16.07;;;2.70;;
22967;SDS011;11650;48.106;-1.696;2023-04-01T21:27:38;11.40;;;2.43;;
22967;SDS011;11650;48.106;-1.696;2023-04-01T21:30:26;9.80;;;2.23;;
22967;SDS011;11650;48.106;-1.696;2023-04-01T21:44:36;10.13;;;2.57;;
22967;SDS011;11650;48.106;-1.696;2023-04-01T21:50:17;11.43;;;2.90;;
22967;SDS011;11650;48.106;-1.696;2023-04-01T22:04:50;9.27;;;2.63;;
22967;SDS011;11650;48.106;-1.696;2023-04-01T22:07:19;14.20;;;3.03;;
22967;SDS011;11650;48.106;-1.696;2023-04-01T22:12:41;11.93;;;2.73;;
22967;SDS011;11650;48.106;-1.696;2023-04-01T22:20:23;12.63;;;2.80;;
22967;SDS011;11650;48.106;-1.696;2023-04-01T22:28:45;10.90;;;3.20;;
22967;SDS011;11650;48.106;-1.696;2023-04-01T22:31:24;11.30;;;3.20;;
22967;SDS011;11650;48.106;-1.696;2023-04-01T22:33:59;6.73;;;2.73;;
22967;SDS011;11650;48.106;-1.696;2023-04-01T22:36:37;14.30;;;3.20;;
22967;SDS011;11650;48.106;-1.696;2023-04-01T22:39:19;12.87;;;3.03;;
22967;SDS011;11650;48.106;-1.696;2023-04-01T22:47:18;14.50;;;3.27;;
22967;SDS011;11650;48.106;-1.696;2023-04-01T22:50:00;16.80;;;3.40;;
22967;SDS011;11650;48.106;-1.696;2023-04-01T22:52:39;12.27;;;2.83;;
22967;SDS011;11650;48.106;-1.696;2023-04-01T22:55:25;12.87;;;3.50;;
22967;SDS011;11650;48.106;-1.696;2023-04-01T22:57:58;11.07;;;2.70;;
22967;SDS011;11650;48.106;-1.696;2023-04-01T23:00:30;14.00;;;3.13;;
22967;SDS011;11650;48.106;-1.696;2023-04-01T23:03:04;18.50;;;3.70;;
22967;SDS011;11650;48.106;-1.696;2023-04-01T23:13:32;15.93;;;3.40;;
22967;SDS011;11650;48.106;-1.696;2023-04-01T23:16:05;14.97;;;3.50;;
22967;SDS011;11650;48.106;-1.696;2023-04-01T23:21:23;15.63;;;3.63;;
22967;SDS011;11650;48.106;-1.696;2023-04-01T23:25:13;13.53;;;3.50;;
22967;SDS011;11650;48.106;-1.696;2023-04-01T23:27:20;13.73;;;3.83;;
22967;SDS011;11650;48.106;-1.696;2023-04-01T23:29:55;13.97;;;3.50;;
22967;SDS011;11650;48.106;-1.696;2023-04-01T23:32:24;14.57;;;4.17;;
22967;SDS011;11650;48.106;-1.696;2023-04-01T23:35:00;14.10;;;3.33;;
22967;SDS011;11650;48.106;-1.696;2023-04-01T23:37:26;13.27;;;3.67;;
22967;SDS011;11650;48.106;-1.696;2023-04-01T23:39:53;17.03;;;3.97;;
22967;SDS011;11650;48.106;-1.696;2023-04-01T23:42:27;16.90;;;3.87;;
22967;SDS011;11650;48.106;-1.696;2023-04-01T23:44:56;13.67;;;4.00;;
22967;SDS011;11650;48.106;-1.696;2023-04-01T23:47:24;13.33;;;4.50;;
22967;SDS011;11650;48.106;-1.696;2023-04-01T23:49:59;14.17;;;4.33;;
22967;SDS011;11650;48.106;-1.696;2023-04-01T23:52:34;13.87;;;4.20;;
22967;SDS011;11650;48.106;-1.696;2023-04-01T23:57:42;21.57;;;4.33;;
